Time;durP1;ratioP1;P1;durP2;ratioP2;P2;SDS_P1;SDS_P2;PMS_P1;PMS_P2;Temp;Humidity;BMP_temperature;BMP_pressure;BME280_temperature;BME280_humidity;BME280_pressure;Samples;Min_cycle;Max_cycle;Signal;HPM_P1;HPM_P2
2023/12/09 00:04:12;;;;;;;47.90;22.77;;;;;;;;;;10315332;28;20102;-69
2023/12/09 00:09:09;;;;;;;44.65;21.55;;;;;;;;;;10316561;28;20459;-71
2023/12/09 00:14:05;;;;;;;65.78;24.77;;;;;;;;;;10309554;28;20047;-70
2023/12/09 00:19:02;;;;;;;52.72;21.83;;;;;;;;;;10312388;28;20079;-71
2023/12/09 00:23:59;;;;;;;57.25;22.48;;;;;;;;;;10307600;28;20055;-71
2023/12/09 00:28:55;;;;;;;43.60;20.88;;;;;;;;;;10314464;28;20048;-70
2023/12/09 00:33:51;;;;;;;51.50;21.65;;;;;;;;;;10315076;28;20044;-71
2023/12/09 00:38:48;;;;;;;54.90;21.17;;;;;;;;;;10313680;28;20121;-70
2023/12/09 00:43:44;;;;;;;52.08;22.00;;;;;;;;;;10313847;28;20504;-71
2023/12/09 00:48:41;;;;;;;44.50;20.45;;;;;;;;;;10313585;28;20159;-71
2023/12/09 00:53:37;;;;;;;48.15;22.05;;;;;;;;;;10314683;28;20037;-71
2023/12/09 00:58:34;;;;;;;45.20;20.10;;;;;;;;;;10311358;28;20769;-69
2023/12/09 01:03:30;;;;;;;45.20;20.92;;;;;;;;;;10312712;28;20072;-69
2023/12/09 01:08:28;;;;;;;48.33;22.48;;;;;;;;;;10310164;28;20053;-71
2023/12/09 01:13:24;;;;;;;43.05;21.48;;;;;;;;;;10308538;28;20106;-70
2023/12/09 01:18:21;;;;;;;44.83;21.23;;;;;;;;;;10313021;28;20051;-70
2023/12/09 01:23:17;;;;;;;47.40;21.05;;;;;;;;;;10311951;28;20508;-70
2023/12/09 01:28:14;;;;;;;49.42;21.92;;;;;;;;;;10310071;28;20052;-70
2023/12/09 01:33:10;;;;;;;54.20;21.55;;;;;;;;;;10310691;28;20040;-69
2023/12/09 01:38:07;;;;;;;49.75;21.63;;;;;;;;;;10310509;28;20055;-70
2023/12/09 01:43:08;;;;;;;52.38;21.67;;;;;;;;;;10312204;28;20044;-70
2023/12/09 01:48:04;;;;;;;58.17;21.98;;;;;;;;;;10311255;28;20115;-72
2023/12/09 01:53:01;;;;;;;43.03;19.48;;;;;;;;;;10312372;28;20048;-71
2023/12/09 01:57:58;;;;;;;52.33;20.20;;;;;;;;;;10312292;28;20715;-71
2023/12/09 02:02:54;;;;;;;43.90;20.77;;;;;;;;;;10311647;28;20052;-71
2023/12/09 02:07:50;;;;;;;44.40;19.15;;;;;;;;;;10302077;28;20049;-71
2023/12/09 02:12:51;;;;;;;41.03;19.35;;;;;;;;;;10305830;28;20562;-71
2023/12/09 02:18:14;;;;;;;41.05;18.92;;;;;;;;;;10310016;28;20075;-71
2023/12/09 02:23:11;;;;;;;42.53;17.52;;;;;;;;;;10302324;28;20036;-68
2023/12/09 02:28:16;;;;;;;56.03;21.02;;;;;;;;;;10311587;28;20057;-68
2023/12/09 02:33:14;;;;;;;63.10;21.27;;;;;;;;;;10304748;28;20099;-68
2023/12/09 02:38:11;;;;;;;48.53;19.77;;;;;;;;;;10310201;28;20449;-69
2023/12/09 02:43:08;;;;;;;49.25;21.02;;;;;;;;;;10309684;28;20049;-69
2023/12/09 02:48:04;;;;;;;76.22;21.45;;;;;;;;;;10313656;28;20082;-71
2023/12/09 02:53:01;;;;;;;46.10;19.65;;;;;;;;;;10306227;28;20052;-72
2023/12/09 02:57:57;;;;;;;41.90;19.48;;;;;;;;;;10319366;28;20044;-68
2023/12/09 03:02:54;;;;;;;60.97;21.23;;;;;;;;;;10314583;28;20055;-69
2023/12/09 03:07:50;;;;;;;48.72;20.27;;;;;;;;;;10315893;28;20052;-72
2023/12/09 03:12:47;;;;;;;52.13;20.20;;;;;;;;;;10309102;28;20200;-69
2023/12/09 03:17:43;;;;;;;45.05;20.33;;;;;;;;;;10309084;28;20059;-71
2023/12/09 03:22:40;;;;;;;51.15;20.77;;;;;;;;;;10285778;28;20534;-74
2023/12/09 03:27:36;;;;;;;51.05;20.90;;;;;;;;;;10318793;28;20052;-72
2023/12/09 03:32:33;;;;;;;48.58;20.17;;;;;;;;;;10314506;28;20136;-72
2023/12/09 03:37:29;;;;;;;54.45;20.92;;;;;;;;;;10316388;28;20048;-72
2023/12/09 03:42:25;;;;;;;49.70;21.38;;;;;;;;;;10308414;28;20056;-72
2023/12/09 03:47:22;;;;;;;48.60;20.00;;;;;;;;;;10313183;28;20480;-72
2023/12/09 03:52:25;;;;;;;52.42;21.60;;;;;;;;;;10307041;28;20076;-72
2023/12/09 03:57:22;;;;;;;48.47;21.25;;;;;;;;;;10312835;28;20048;-72
2023/12/09 04:02:18;;;;;;;56.58;21.85;;;;;;;;;;10310923;28;20471;-72
2023/12/09 04:07:15;;;;;;;58.55;21.65;;;;;;;;;;10312928;28;20127;-72
2023/12/09 04:12:11;;;;;;;45.63;19.80;;;;;;;;;;10309027;28;20059;-73
2023/12/09 04:17:07;;;;;;;49.85;22.80;;;;;;;;;;10312055;28;20669;-72
2023/12/09 04:22:04;;;;;;;55.38;23.52;;;;;;;;;;10312635;28;20101;-70
2023/12/09 04:27:00;;;;;;;53.13;23.13;;;;;;;;;;10313596;28;20048;-71
2023/12/09 04:31:56;;;;;;;59.60;23.00;;;;;;;;;;10311520;28;20044;-72
2023/12/09 04:36:56;;;;;;;49.05;22.27;;;;;;;;;;10324261;28;20097;-70
2023/12/09 04:41:52;;;;;;;60.22;22.95;;;;;;;;;;10315575;28;20508;-71
2023/12/09 04:46:48;;;;;;;56.13;23.58;;;;;;;;;;10315595;28;20045;-71
2023/12/09 04:51:45;;;;;;;59.97;23.35;;;;;;;;;;10320760;28;20459;-74
2023/12/09 04:56:42;;;;;;;56.60;24.48;;;;;;;;;;10316326;28;20048;-74
2023/12/09 05:01:38;;;;;;;65.93;25.73;;;;;;;;;;10315597;28;20051;-68
2023/12/09 05:06:34;;;;;;;75.90;24.25;;;;;;;;;;10313908;28;20079;-70
2023/12/09 05:11:34;;;;;;;60.97;25.25;;;;;;;;;;10319794;28;20040;-68
2023/12/09 05:16:31;;;;;;;67.43;26.35;;;;;;;;;;10308957;28;20059;-68
2023/12/09 05:21:27;;;;;;;59.05;26.75;;;;;;;;;;10307463;28;20511;-68
2023/12/09 05:26:31;;;;;;;65.22;26.90;;;;;;;;;;10312866;28;20062;-70
2023/12/09 05:31:28;;;;;;;69.28;26.58;;;;;;;;;;10309118;28;20174;-70
2023/12/09 05:36:24;;;;;;;63.30;26.77;;;;;;;;;;10312383;28;20401;-70
2023/12/09 05:41:20;;;;;;;50.25;25.23;;;;;;;;;;10307833;28;21477;-70
2023/12/09 05:46:18;;;;;;;65.38;25.92;;;;;;;;;;10312535;28;20515;-72
2023/12/09 05:51:15;;;;;;;63.92;27.23;;;;;;;;;;10311907;28;20516;-72
2023/12/09 05:56:11;;;;;;;69.53;25.67;;;;;;;;;;10312221;28;20053;-71
2023/12/09 06:01:08;;;;;;;59.83;26.63;;;;;;;;;;10313140;28;20060;-71
2023/12/09 06:06:05;;;;;;;69.05;27.50;;;;;;;;;;10300041;28;20049;-71
2023/12/09 06:11:02;;;;;;;56.17;25.38;;;;;;;;;;10306577;28;20087;-70
2023/12/09 06:15:58;;;;;;;54.58;25.23;;;;;;;;;;10289909;28;20053;-72
2023/12/09 06:20:55;;;;;;;55.88;27.92;;;;;;;;;;10308315;28;20052;-71
2023/12/09 06:25:52;;;;;;;52.67;27.30;;;;;;;;;;10303686;28;20413;-71
2023/12/09 06:30:49;;;;;;;54.85;27.42;;;;;;;;;;10299417;28;20066;-71
2023/12/09 06:35:45;;;;;;;55.10;27.70;;;;;;;;;;10289533;28;20055;-70
2023/12/09 06:40:41;;;;;;;59.83;26.27;;;;;;;;;;10287064;28;20102;-71
2023/12/09 06:45:38;;;;;;;61.80;26.23;;;;;;;;;;10310239;28;20471;-73
2023/12/09 06:50:34;;;;;;;60.03;25.85;;;;;;;;;;10306948;28;20094;-72
2023/12/09 06:55:31;;;;;;;67.45;27.90;;;;;;;;;;10307857;28;20110;-71
2023/12/09 07:00:27;;;;;;;60.13;26.95;;;;;;;;;;10322347;28;20059;-71
2023/12/09 07:05:23;;;;;;;42.60;24.98;;;;;;;;;;10316704;28;20477;-71
2023/12/09 07:10:20;;;;;;;52.63;24.63;;;;;;;;;;10309651;28;20056;-73
2023/12/09 07:15:16;;;;;;;58.10;27.42;;;;;;;;;;10306983;28;20058;-73
2023/12/09 07:20:13;;;;;;;50.38;25.08;;;;;;;;;;10319631;28;20099;-72
2023/12/09 07:25:10;;;;;;;50.58;24.48;;;;;;;;;;10302746;28;20049;-73
2023/12/09 07:30:07;;;;;;;57.80;25.20;;;;;;;;;;10308844;28;20611;-72
2023/12/09 07:35:04;;;;;;;47.63;25.20;;;;;;;;;;10295831;28;20562;-73
2023/12/09 07:40:00;;;;;;;53.97;25.50;;;;;;;;;;10301726;28;20540;-73
2023/12/09 07:44:57;;;;;;;48.92;25.50;;;;;;;;;;10304181;28;20415;-73
2023/12/09 07:49:53;;;;;;;44.83;24.20;;;;;;;;;;10305258;28;20048;-72
2023/12/09 07:54:49;;;;;;;41.53;24.40;;;;;;;;;;10300888;28;20127;-72
2023/12/09 07:59:46;;;;;;;45.50;23.52;;;;;;;;;;10312121;28;20526;-71
2023/12/09 08:04:42;;;;;;;48.38;22.63;;;;;;;;;;10313809;28;20056;-71
2023/12/09 08:09:38;;;;;;;41.13;22.98;;;;;;;;;;10310235;28;20052;-72
2023/12/09 08:14:35;;;;;;;54.15;23.85;;;;;;;;;;10296881;28;20063;-73
2023/12/09 08:19:31;;;;;;;42.30;22.55;;;;;;;;;;10303372;28;20461;-76
2023/12/09 08:24:30;;;;;;;38.00;21.50;;;;;;;;;;10318971;28;20068;-74
2023/12/09 08:29:27;;;;;;;45.70;24.58;;;;;;;;;;10315033;28;20135;-74
2023/12/09 08:34:30;;;;;;;45.92;24.08;;;;;;;;;;10299484;28;20036;-73
2023/12/09 08:39:27;;;;;;;42.65;22.17;;;;;;;;;;10316453;28;20516;-74
2023/12/09 08:44:23;;;;;;;38.53;23.77;;;;;;;;;;10293233;28;20049;-74
2023/12/09 08:49:22;;;;;;;49.15;21.38;;;;;;;;;;10305477;28;20150;-73
2023/12/09 08:54:20;;;;;;;39.38;21.15;;;;;;;;;;10307851;28;20057;-74
2023/12/09 08:59:17;;;;;;;41.33;19.98;;;;;;;;;;10309044;28;20496;-76
2023/12/09 09:04:13;;;;;;;38.95;21.85;;;;;;;;;;10302896;28;20793;-75
2023/12/09 09:09:11;;;;;;;35.33;20.50;;;;;;;;;;10302505;28;20044;-76
2023/12/09 09:14:08;;;;;;;32.83;19.00;;;;;;;;;;10307484;28;20059;-75
2023/12/09 09:19:04;;;;;;;34.15;19.95;;;;;;;;;;10305020;28;20075;-75
2023/12/09 09:24:02;;;;;;;33.90;18.55;;;;;;;;;;10312449;28;20040;-75
2023/12/09 09:28:59;;;;;;;33.03;19.35;;;;;;;;;;10288488;28;20049;-74
2023/12/09 09:33:56;;;;;;;36.03;19.58;;;;;;;;;;10292235;28;20419;-75
2023/12/09 09:38:52;;;;;;;27.67;17.48;;;;;;;;;;10311576;28;20353;-75
2023/12/09 09:43:56;;;;;;;26.52;17.83;;;;;;;;;;10308498;28;20040;-74
2023/12/09 09:54:15;;;;;;;33.88;18.98;;;;;;;;;;10333645;22;20044;-75
2023/12/09 09:59:20;;;;;;;36.35;19.73;;;;;;;;;;10275053;28;20451;-77
2023/12/09 10:10:35;;;;;;;31.23;18.60;;;;;;;;;;10218617;28;20052;-75
2023/12/09 10:15:55;;;;;;;29.58;18.85;;;;;;;;;;10215826;28;20049;-76
2023/12/09 10:21:28;;;;;;;;;;;;;;;;;;;;;
2023/12/09 11:11:57;;;;;;;31.70;16.38;;;;;;;;;;10064939;28;20077;-77
2023/12/09 11:17:40;;;;;;;24.70;15.45;;;;;;;;;;10276122;28;20049;-73
2023/12/09 11:22:41;;;;;;;24.73;15.38;;;;;;;;;;10261571;28;20045;-77
2023/12/09 11:27:38;;;;;;;30.27;14.90;;;;;;;;;;10303146;28;20055;-76
2023/12/09 11:32:35;;;;;;;24.58;16.30;;;;;;;;;;10307328;28;20047;-76
2023/12/09 11:37:31;;;;;;;36.45;16.40;;;;;;;;;;10305302;28;20077;-75
2023/12/09 11:42:30;;;;;;;19.75;14.82;;;;;;;;;;10310412;28;20075;-76
2023/12/09 11:47:27;;;;;;;18.27;13.73;;;;;;;;;;10311978;28;20048;-76
2023/12/09 11:52:24;;;;;;;21.30;12.80;;;;;;;;;;10281993;28;20056;-75
2023/12/09 11:57:20;;;;;;;22.40;14.60;;;;;;;;;;10306758;28;20075;-76
2023/12/09 12:02:17;;;;;;;26.63;15.30;;;;;;;;;;10307249;28;20428;-76
2023/12/09 12:07:13;;;;;;;21.83;14.48;;;;;;;;;;10312054;28;20056;-75
2023/12/09 12:12:09;;;;;;;23.85;14.60;;;;;;;;;;10315809;28;20047;-76
2023/12/09 12:17:06;;;;;;;21.85;13.60;;;;;;;;;;10312012;28;20054;-76
2023/12/09 12:22:04;;;;;;;23.63;14.43;;;;;;;;;;10314304;28;20504;-76
2023/12/09 12:27:00;;;;;;;21.45;14.60;;;;;;;;;;10298426;28;20052;-75
2023/12/09 12:31:56;;;;;;;20.42;14.45;;;;;;;;;;10313290;28;20661;-77
2023/12/09 12:36:53;;;;;;;16.30;12.98;;;;;;;;;;10316075;28;20051;-77
2023/12/09 12:41:50;;;;;;;26.05;13.30;;;;;;;;;;10312895;28;20044;-77
2023/12/09 12:46:46;;;;;;;31.00;14.10;;;;;;;;;;10310500;28;20049;-77
2023/12/09 12:51:42;;;;;;;24.17;14.48;;;;;;;;;;10307967;28;20045;-75
2023/12/09 12:56:39;;;;;;;22.65;13.95;;;;;;;;;;10305531;28;20500;-76
2023/12/09 13:01:35;;;;;;;20.55;13.38;;;;;;;;;;10308633;28;20045;-75
2023/12/09 13:06:32;;;;;;;19.48;12.90;;;;;;;;;;10306832;28;20084;-76
2023/12/09 13:11:29;;;;;;;25.45;13.18;;;;;;;;;;10302119;28;20762;-76
2023/12/09 13:16:26;;;;;;;19.90;12.98;;;;;;;;;;10311576;28;20044;-76
2023/12/09 13:21:22;;;;;;;18.90;13.30;;;;;;;;;;10313652;28;20048;-76
2023/12/09 13:26:19;;;;;;;21.75;13.70;;;;;;;;;;10301291;28;20082;-76
2023/12/09 13:31:15;;;;;;;16.15;13.73;;;;;;;;;;10320053;28;20088;-76
2023/12/09 13:36:12;;;;;;;19.50;13.10;;;;;;;;;;10321261;28;20048;-76
2023/12/09 13:41:09;;;;;;;20.80;14.18;;;;;;;;;;10311164;28;20049;-76
2023/12/09 13:46:05;;;;;;;18.95;13.35;;;;;;;;;;10330547;28;20043;-75
2023/12/09 13:51:03;;;;;;;22.60;13.15;;;;;;;;;;10313087;28;20060;-76
2023/12/09 13:56:00;;;;;;;22.02;13.13;;;;;;;;;;10332051;28;20045;-76
2023/12/09 14:00:57;;;;;;;18.17;13.98;;;;;;;;;;10302831;28;20052;-76
2023/12/09 14:05:54;;;;;;;18.50;13.60;;;;;;;;;;10308984;28;20051;-76
2023/12/09 14:10:51;;;;;;;21.67;13.07;;;;;;;;;;10310446;28;20044;-76
2023/12/09 14:15:47;;;;;;;19.85;13.93;;;;;;;;;;10310196;28;20508;-76
2023/12/09 14:20:43;;;;;;;19.42;12.68;;;;;;;;;;10309034;28;20129;-76
2023/12/09 14:25:40;;;;;;;14.98;12.00;;;;;;;;;;10314707;28;20063;-76
2023/12/09 14:30:36;;;;;;;14.65;11.77;;;;;;;;;;10314791;28;20457;-76
2023/12/09 14:35:32;;;;;;;16.48;12.55;;;;;;;;;;10318038;28;20051;-76
2023/12/09 14:40:29;;;;;;;16.33;12.10;;;;;;;;;;10295902;28;20098;-76
2023/12/09 14:45:26;;;;;;;15.07;12.18;;;;;;;;;;10311644;28;20048;-76
2023/12/09 14:50:22;;;;;;;13.40;12.07;;;;;;;;;;10307340;28;20052;-76
2023/12/09 14:55:20;;;;;;;16.75;11.88;;;;;;;;;;10307632;28;20067;-76
2023/12/09 15:00:17;;;;;;;15.57;12.90;;;;;;;;;;10312937;28;20555;-77
2023/12/09 15:05:14;;;;;;;16.20;12.32;;;;;;;;;;10309848;28;20500;-76
2023/12/09 15:10:11;;;;;;;16.98;13.00;;;;;;;;;;10291958;28;20143;-76
2023/12/09 15:15:08;;;;;;;18.23;13.60;;;;;;;;;;10307855;28;20049;-75
2023/12/09 15:20:08;;;;;;;19.63;12.10;;;;;;;;;;10294832;28;20068;-76
2023/12/09 15:25:05;;;;;;;23.13;15.07;;;;;;;;;;10302695;28;20075;-75
2023/12/09 15:30:03;;;;;;;14.02;11.68;;;;;;;;;;10303332;28;20056;-75
2023/12/09 15:35:00;;;;;;;15.95;11.23;;;;;;;;;;10286320;28;20052;-76
2023/12/09 15:39:57;;;;;;;16.75;11.57;;;;;;;;;;10310863;28;20054;-76
2023/12/09 15:44:53;;;;;;;15.73;12.05;;;;;;;;;;10277062;28;20047;-75
2023/12/09 15:49:49;;;;;;;18.67;11.77;;;;;;;;;;10301572;28;20048;-75
2023/12/09 15:54:46;;;;;;;12.68;11.23;;;;;;;;;;10299903;28;20053;-76
2023/12/09 15:59:42;;;;;;;12.40;10.25;;;;;;;;;;10300236;28;20075;-76
2023/12/09 16:04:38;;;;;;;12.45;11.15;;;;;;;;;;10304233;28;20048;-76
2023/12/09 16:09:35;;;;;;;11.85;10.68;;;;;;;;;;10285156;28;20049;-76
2023/12/09 16:14:39;;;;;;;18.35;11.63;;;;;;;;;;10311073;28;20048;-76
2023/12/09 16:19:36;;;;;;;12.07;10.90;;;;;;;;;;10292518;28;20053;-75
2023/12/09 16:24:33;;;;;;;14.30;11.23;;;;;;;;;;10302685;28;20520;-76
2023/12/09 16:29:29;;;;;;;14.48;11.02;;;;;;;;;;10315909;28;20482;-76
2023/12/09 16:34:26;;;;;;;12.27;11.02;;;;;;;;;;10311489;28;20049;-76
2023/12/09 16:39:23;;;;;;;18.00;10.35;;;;;;;;;;10307167;28;20051;-76
2023/12/09 16:44:19;;;;;;;12.25;10.13;;;;;;;;;;10293842;28;20075;-76
2023/12/09 16:49:15;;;;;;;10.90;9.80;;;;;;;;;;10315406;28;20171;-76
2023/12/09 16:54:12;;;;;;;11.73;10.65;;;;;;;;;;10292313;28;20056;-76
2023/12/09 16:59:10;;;;;;;15.10;10.20;;;;;;;;;;10291917;28;20144;-76
2023/12/09 17:04:08;;;;;;;13.57;9.88;;;;;;;;;;10314394;28;20060;-76
2023/12/09 17:09:04;;;;;;;10.63;9.10;;;;;;;;;;10290047;28;20569;-76
2023/12/09 17:14:01;;;;;;;11.45;9.13;;;;;;;;;;10313400;28;20537;-76
2023/12/09 17:18:57;;;;;;;12.98;9.38;;;;;;;;;;10300605;28;20044;-76
2023/12/09 17:23:54;;;;;;;15.50;10.07;;;;;;;;;;10301875;28;20060;-76
2023/12/09 17:28:51;;;;;;;15.15;9.77;;;;;;;;;;10313883;28;20535;-77
2023/12/09 17:33:47;;;;;;;11.25;10.13;;;;;;;;;;10311202;28;20566;-77
2023/12/09 17:38:43;;;;;;;14.60;10.38;;;;;;;;;;10306950;28;20102;-77
2023/12/09 17:43:40;;;;;;;11.95;10.48;;;;;;;;;;10313637;28;20386;-76
2023/12/09 17:48:37;;;;;;;11.50;10.30;;;;;;;;;;10313823;28;20060;-77
2023/12/09 17:53:34;;;;;;;14.55;10.70;;;;;;;;;;10301032;28;20056;-77
2023/12/09 17:58:31;;;;;;;12.18;10.52;;;;;;;;;;10304976;28;20045;-76
2023/12/09 18:03:27;;;;;;;11.75;10.57;;;;;;;;;;10303818;28;20057;-77
2023/12/09 18:08:24;;;;;;;12.00;10.43;;;;;;;;;;10307478;28;20056;-77
2023/12/09 18:13:21;;;;;;;15.82;10.65;;;;;;;;;;10298528;28;20052;-77
2023/12/09 18:18:18;;;;;;;11.55;10.35;;;;;;;;;;10309062;28;20053;-76
2023/12/09 18:23:14;;;;;;;11.40;10.30;;;;;;;;;;10313205;28;20122;-76
2023/12/09 18:28:10;;;;;;;15.60;10.10;;;;;;;;;;10308584;28;20191;-76
2023/12/09 18:33:07;;;;;;;13.15;10.15;;;;;;;;;;10305560;28;20044;-76
2023/12/09 18:38:03;;;;;;;14.00;10.23;;;;;;;;;;10293176;28;20045;-76
2023/12/09 18:43:00;;;;;;;13.90;10.02;;;;;;;;;;10289814;28;20191;-76
2023/12/09 18:47:56;;;;;;;17.27;10.20;;;;;;;;;;10305240;28;20582;-77
2023/12/09 18:52:55;;;;;;;12.13;10.00;;;;;;;;;;10303579;28;20127;-77
2023/12/09 18:57:51;;;;;;;13.70;10.38;;;;;;;;;;10307548;28;20040;-76
2023/12/09 19:02:48;;;;;;;12.43;9.20;;;;;;;;;;10298129;28;20053;-77
2023/12/09 19:07:44;;;;;;;13.40;9.68;;;;;;;;;;10306589;28;20083;-77
2023/12/09 19:12:41;;;;;;;12.20;9.73;;;;;;;;;;10297500;28;20060;-76
2023/12/09 19:17:37;;;;;;;10.80;9.65;;;;;;;;;;10298920;28;20132;-77
2023/12/09 19:22:34;;;;;;;9.60;8.70;;;;;;;;;;10296022;28;20049;-76
2023/12/09 19:27:31;;;;;;;15.35;9.95;;;;;;;;;;10277926;28;20085;-76
2023/12/09 19:32:27;;;;;;;10.23;9.20;;;;;;;;;;10305669;28;20105;-76
2023/12/09 19:37:24;;;;;;;15.23;10.15;;;;;;;;;;10293171;28;20044;-76
2023/12/09 19:42:21;;;;;;;10.98;9.82;;;;;;;;;;10306690;28;20048;-76
2023/12/09 19:47:18;;;;;;;11.32;9.15;;;;;;;;;;10289134;28;20084;-76
2023/12/09 19:52:14;;;;;;;11.52;10.48;;;;;;;;;;10305911;28;20069;-77
2023/12/09 19:57:10;;;;;;;13.07;10.38;;;;;;;;;;10306343;28;20052;-74
2023/12/09 20:02:07;;;;;;;15.50;10.48;;;;;;;;;;10308597;28;20037;-75
2023/12/09 20:07:03;;;;;;;14.95;10.85;;;;;;;;;;10309665;28;20045;-75
2023/12/09 20:12:00;;;;;;;10.50;9.45;;;;;;;;;;10310741;28;20449;-74
2023/12/09 20:16:56;;;;;;;13.02;9.75;;;;;;;;;;10307089;28;20044;-74
2023/12/09 20:21:52;;;;;;;12.85;9.77;;;;;;;;;;10304995;28;20459;-75
2023/12/09 20:26:49;;;;;;;13.00;10.77;;;;;;;;;;10308625;28;20106;-74
2023/12/09 20:31:45;;;;;;;15.65;10.40;;;;;;;;;;10297334;28;20033;-74
2023/12/09 20:36:41;;;;;;;13.07;10.38;;;;;;;;;;10284743;28;20517;-74
2023/12/09 20:41:38;;;;;;;12.35;9.95;;;;;;;;;;10283263;28;20057;-74
2023/12/09 20:46:35;;;;;;;14.25;11.15;;;;;;;;;;10305775;28;20055;-74
2023/12/09 20:51:31;;;;;;;16.23;9.52;;;;;;;;;;10307597;28;20052;-74
2023/12/09 20:56:27;;;;;;;11.23;10.02;;;;;;;;;;10290488;28;20108;-75
2023/12/09 21:01:24;;;;;;;13.93;9.30;;;;;;;;;;10301499;28;20052;-74
2023/12/09 21:06:20;;;;;;;15.45;9.35;;;;;;;;;;10308007;28;20056;-75
2023/12/09 21:11:21;;;;;;;14.55;8.98;;;;;;;;;;10297745;28;20049;-74
2023/12/09 21:16:17;;;;;;;10.68;9.05;;;;;;;;;;10290636;28;20072;-74
2023/12/09 21:21:14;;;;;;;10.55;8.02;;;;;;;;;;10294210;28;20439;-75
2023/12/09 21:26:10;;;;;;;9.27;8.23;;;;;;;;;;10312020;28;20041;-74
2023/12/09 21:31:10;;;;;;;9.63;8.50;;;;;;;;;;10298634;28;20049;-74
2023/12/09 21:36:11;;;;;;;9.52;8.00;;;;;;;;;;10292883;28;20094;-74
2023/12/09 21:41:08;;;;;;;11.10;9.30;;;;;;;;;;10299221;28;20060;-74
2023/12/09 21:46:05;;;;;;;10.52;8.55;;;;;;;;;;10307190;28;20050;-74
2023/12/09 21:51:02;;;;;;;9.30;8.40;;;;;;;;;;10315265;28;20511;-74
2023/12/09 21:55:58;;;;;;;11.55;8.55;;;;;;;;;;10310284;28;20052;-74
2023/12/09 22:00:54;;;;;;;12.68;8.63;;;;;;;;;;10303869;28;20615;-74
2023/12/09 22:05:51;;;;;;;9.38;8.23;;;;;;;;;;10312891;28;20501;-74
2023/12/09 22:10:47;;;;;;;12.07;8.77;;;;;;;;;;10299159;28;20099;-74
2023/12/09 22:15:46;;;;;;;9.25;8.35;;;;;;;;;;10294673;28;20052;-74
2023/12/09 22:20:42;;;;;;;12.27;9.38;;;;;;;;;;10297326;28;20534;-74
2023/12/09 22:25:38;;;;;;;13.23;8.77;;;;;;;;;;10305105;28;20052;-75
2023/12/09 22:30:35;;;;;;;12.05;8.85;;;;;;;;;;10298887;28;20044;-74
2023/12/09 22:35:32;;;;;;;11.43;9.27;;;;;;;;;;10304254;28;20050;-75
2023/12/09 22:40:29;;;;;;;9.60;8.43;;;;;;;;;;10304067;28;20044;-74
2023/12/09 22:45:25;;;;;;;13.52;9.10;;;;;;;;;;10297929;28;20114;-74
2023/12/09 22:50:21;;;;;;;9.02;7.40;;;;;;;;;;10300046;28;20090;-74
2023/12/09 22:55:18;;;;;;;8.70;7.80;;;;;;;;;;10297603;28;20053;-74
2023/12/09 23:00:26;;;;;;;8.43;7.43;;;;;;;;;;10281461;28;20060;-75
2023/12/09 23:05:22;;;;;;;8.48;7.78;;;;;;;;;;10296690;28;20052;-75
2023/12/09 23:10:19;;;;;;;10.88;8.20;;;;;;;;;;10301055;28;20071;-75
2023/12/09 23:15:16;;;;;;;10.45;8.45;;;;;;;;;;10299573;28;20059;-74
2023/12/09 23:20:12;;;;;;;9.90;8.90;;;;;;;;;;10300896;28;20087;-74
2023/12/09 23:25:08;;;;;;;10.30;9.20;;;;;;;;;;10292301;28;20052;-75
2023/12/09 23:30:06;;;;;;;10.20;8.80;;;;;;;;;;10293750;28;20076;-75
2023/12/09 23:35:02;;;;;;;11.63;9.10;;;;;;;;;;10310068;28;20391;-75
2023/12/09 23:39:58;;;;;;;10.20;8.60;;;;;;;;;;10283435;28;20041;-75
2023/12/09 23:44:55;;;;;;;10.68;9.57;;;;;;;;;;10308733;28;20056;-75
2023/12/09 23:49:51;;;;;;;11.40;9.88;;;;;;;;;;10305387;28;20057;-75
2023/12/09 23:54:47;;;;;;;10.50;9.40;;;;;;;;;;10306959;28;20056;-75
2023/12/09 23:59:44;;;;;;;10.85;9.63;;;;;;;;;;10305386;28;20072;-75
